Main page
METAR-TAF:

METAR-TAF

Airports :

Weeze Airport

Weeze, Germany

latitude: 51-36-09N, longitude: 006-08-32E, elevation: 32 m

Current weather observation

The report was made 21 minutes ago, at 21:50 UTC
Wind 3 kt from variable directions
Temperature 20°C
Humidity 73%
Pressure 1016 hPa
Visibility 10 km or more
no clouds below 1500 m and no cumulonimbus

METAR: EDLV 222150Z VRB03KT CAVOK 20/15 Q1016

Time: 00:11 (22:11 UTC)

Forecast

The report was made 5 hours and 11 minutes ago, at 17:00 UTC
Forecast valid from 22 at 18 UTC to 23 at 18 UTC
Wind 7 kt from the West/Northwest
Visibility 10 km or more
no clouds below 1500 m and no cumulonimbus
Becoming
from 22 at 18 UTC to 22 at 21 UTC
Wind 3 kt from variable directions
Becoming
from 23 at 08 UTC to 23 at 11 UTC
Wind 5 kt from the West/Northwest

TAF: EDLV 221700Z 2218/2318 30007KT CAVOK BECMG 2218/2221 VRB03KT BECMG 2308/2311 29005KT

Weather observations and forecasts of more than 4000 airports (METAR and TAF reports).

The available stations are represented by yellow and red dots on the map.

Hover mouse over dot to see the name of the station.

Then click to see weather observations and forecasts.

To change the map : click on the green buttons with a black cross to zoom in, on the green button with a dash to zoom out, or on the green arrows for adjacent maps.


METAR-TAF: